sensor_id;sensor_type;location;lat;lon;timestamp;P1;durP1;ratioP1;P2;durP2;ratioP2
74689;SDS011;63221;51.860;-2.188;2023-04-07T00:02:22;3.97;;;1.33;;
74689;SDS011;63221;51.860;-2.188;2023-04-07T00:04:48;5.90;;;1.80;;
74689;SDS011;63221;51.860;-2.188;2023-04-07T00:07:13;2.97;;;1.60;;
74689;SDS011;63221;51.860;-2.188;2023-04-07T00:09:38;6.20;;;1.70;;
74689;SDS011;63221;51.860;-2.188;2023-04-07T00:12:04;5.97;;;2.50;;
74689;SDS011;63221;51.860;-2.188;2023-04-07T00:14:29;4.63;;;1.90;;
74689;SDS011;63221;51.860;-2.188;2023-04-07T00:16:55;4.87;;;2.00;;
74689;SDS011;63221;51.860;-2.188;2023-04-07T00:19:20;3.93;;;2.10;;
74689;SDS011;63221;51.860;-2.188;2023-04-07T00:21:46;3.92;;;1.67;;
74689;SDS011;63221;51.860;-2.188;2023-04-07T00:24:11;3.37;;;1.87;;
74689;SDS011;63221;51.860;-2.188;2023-04-07T00:26:37;4.37;;;2.10;;
74689;SDS011;63221;51.860;-2.188;2023-04-07T00:29:02;3.80;;;1.50;;
74689;SDS011;63221;51.860;-2.188;2023-04-07T00:31:27;4.63;;;2.15;;
74689;SDS011;63221;51.860;-2.188;2023-04-07T00:33:53;5.50;;;2.37;;
74689;SDS011;63221;51.860;-2.188;2023-04-07T00:36:19;5.43;;;2.05;;
74689;SDS011;63221;51.860;-2.188;2023-04-07T00:38:45;4.47;;;2.10;;
74689;SDS011;63221;51.860;-2.188;2023-04-07T00:41:10;3.43;;;2.17;;
74689;SDS011;63221;51.860;-2.188;2023-04-07T00:43:36;5.20;;;1.90;;
74689;SDS011;63221;51.860;-2.188;2023-04-07T00:46:01;4.73;;;1.93;;
74689;SDS011;63221;51.860;-2.188;2023-04-07T00:48:27;4.40;;;1.57;;
74689;SDS011;63221;51.860;-2.188;2023-04-07T00:50:52;4.20;;;2.03;;
74689;SDS011;63221;51.860;-2.188;2023-04-07T00:53:18;3.45;;;1.77;;
74689;SDS011;63221;51.860;-2.188;2023-04-07T00:55:43;4.07;;;1.57;;
74689;SDS011;63221;51.860;-2.188;2023-04-07T00:58:09;5.00;;;1.60;;
74689;SDS011;63221;51.860;-2.188;2023-04-07T01:00:37;3.93;;;1.40;;
74689;SDS011;63221;51.860;-2.188;2023-04-07T01:03:17;3.88;;;1.25;;
74689;SDS011;63221;51.860;-2.188;2023-04-07T01:05:49;3.38;;;1.25;;
74689;SDS011;63221;51.860;-2.188;2023-04-07T01:08:23;3.47;;;1.43;;
74689;SDS011;63221;51.860;-2.188;2023-04-07T01:10:55;4.13;;;1.70;;
74689;SDS011;63221;51.860;-2.188;2023-04-07T01:13:33;3.95;;;1.92;;
74689;SDS011;63221;51.860;-2.188;2023-04-07T01:16:02;3.72;;;1.42;;
74689;SDS011;63221;51.860;-2.188;2023-04-07T01:18:32;3.63;;;1.75;;
74689;SDS011;63221;51.860;-2.188;2023-04-07T01:21:00;4.17;;;1.57;;
74689;SDS011;63221;51.860;-2.188;2023-04-07T01:26:22;5.22;;;2.03;;
74689;SDS011;63221;51.860;-2.188;2023-04-07T01:28:55;6.80;;;1.33;;
74689;SDS011;63221;51.860;-2.188;2023-04-07T01:31:35;3.20;;;1.05;;
74689;SDS011;63221;51.860;-2.188;2023-04-07T01:34:03;5.70;;;0.97;;
74689;SDS011;63221;51.860;-2.188;2023-04-07T01:36:29;3.00;;;1.40;;
74689;SDS011;63221;51.860;-2.188;2023-04-07T01:38:56;5.18;;;1.95;;
74689;SDS011;63221;51.860;-2.188;2023-04-07T01:41:22;2.88;;;1.10;;
74689;SDS011;63221;51.860;-2.188;2023-04-07T01:43:48;3.83;;;1.53;;
74689;SDS011;63221;51.860;-2.188;2023-04-07T01:46:14;2.40;;;1.00;;
74689;SDS011;63221;51.860;-2.188;2023-04-07T01:48:40;3.33;;;1.95;;
74689;SDS011;63221;51.860;-2.188;2023-04-07T01:51:06;3.77;;;1.13;;
74689;SDS011;63221;51.860;-2.188;2023-04-07T01:53:32;6.53;;;1.50;;
74689;SDS011;63221;51.860;-2.188;2023-04-07T01:56:01;6.95;;;1.38;;
74689;SDS011;63221;51.860;-2.188;2023-04-07T01:58:27;4.83;;;1.33;;
74689;SDS011;63221;51.860;-2.188;2023-04-07T02:00:53;3.50;;;1.30;;
74689;SDS011;63221;51.860;-2.188;2023-04-07T02:06:32;3.67;;;1.30;;
74689;SDS011;63221;51.860;-2.188;2023-04-07T02:09:01;3.15;;;1.33;;
74689;SDS011;63221;51.860;-2.188;2023-04-07T02:11:31;1.98;;;0.77;;
74689;SDS011;63221;51.860;-2.188;2023-04-07T02:13:57;7.15;;;1.50;;
74689;SDS011;63221;51.860;-2.188;2023-04-07T02:16:24;3.20;;;1.10;;
74689;SDS011;63221;51.860;-2.188;2023-04-07T02:18:50;1.95;;;0.80;;
74689;SDS011;63221;51.860;-2.188;2023-04-07T02:21:17;2.88;;;0.85;;
74689;SDS011;63221;51.860;-2.188;2023-04-07T02:23:43;4.30;;;1.73;;
74689;SDS011;63221;51.860;-2.188;2023-04-07T02:26:08;4.82;;;1.42;;
74689;SDS011;63221;51.860;-2.188;2023-04-07T02:28:34;4.97;;;1.00;;
74689;SDS011;63221;51.860;-2.188;2023-04-07T02:31:00;4.67;;;1.03;;
74689;SDS011;63221;51.860;-2.188;2023-04-07T02:33:25;3.63;;;0.80;;
74689;SDS011;63221;51.860;-2.188;2023-04-07T02:35:50;4.73;;;1.60;;
74689;SDS011;63221;51.860;-2.188;2023-04-07T02:38:16;7.07;;;1.63;;
74689;SDS011;63221;51.860;-2.188;2023-04-07T02:40:41;2.63;;;1.13;;
74689;SDS011;63221;51.860;-2.188;2023-04-07T02:43:07;4.20;;;1.45;;
74689;SDS011;63221;51.860;-2.188;2023-04-07T02:45:32;2.93;;;1.40;;
74689;SDS011;63221;51.860;-2.188;2023-04-07T02:47:57;2.93;;;1.40;;
74689;SDS011;63221;51.860;-2.188;2023-04-07T02:50:23;3.67;;;1.17;;
74689;SDS011;63221;51.860;-2.188;2023-04-07T02:52:50;2.90;;;1.52;;
74689;SDS011;63221;51.860;-2.188;2023-04-07T02:55:15;4.23;;;1.43;;
74689;SDS011;63221;51.860;-2.188;2023-04-07T02:57:42;3.40;;;1.25;;
74689;SDS011;63221;51.860;-2.188;2023-04-07T03:00:08;5.63;;;1.83;;
74689;SDS011;63221;51.860;-2.188;2023-04-07T03:02:34;5.07;;;1.30;;
74689;SDS011;63221;51.860;-2.188;2023-04-07T03:04:59;4.43;;;1.67;;
74689;SDS011;63221;51.860;-2.188;2023-04-07T03:07:25;3.50;;;1.10;;
74689;SDS011;63221;51.860;-2.188;2023-04-07T03:09:51;5.00;;;1.75;;
74689;SDS011;63221;51.860;-2.188;2023-04-07T03:12:16;4.47;;;1.07;;
74689;SDS011;63221;51.860;-2.188;2023-04-07T03:14:42;4.40;;;1.50;;
74689;SDS011;63221;51.860;-2.188;2023-04-07T03:17:07;3.53;;;1.47;;
74689;SDS011;63221;51.860;-2.188;2023-04-07T03:19:32;3.30;;;1.40;;
74689;SDS011;63221;51.860;-2.188;2023-04-07T03:21:58;2.60;;;1.35;;
74689;SDS011;63221;51.860;-2.188;2023-04-07T03:24:23;3.63;;;1.67;;
74689;SDS011;63221;51.860;-2.188;2023-04-07T03:26:49;4.47;;;1.60;;
74689;SDS011;63221;51.860;-2.188;2023-04-07T03:29:15;3.22;;;1.08;;
74689;SDS011;63221;51.860;-2.188;2023-04-07T03:31:40;4.23;;;1.10;;
74689;SDS011;63221;51.860;-2.188;2023-04-07T03:34:06;3.43;;;1.40;;
74689;SDS011;63221;51.860;-2.188;2023-04-07T03:36:31;3.25;;;1.52;;
74689;SDS011;63221;51.860;-2.188;2023-04-07T03:38:57;3.17;;;1.53;;
74689;SDS011;63221;51.860;-2.188;2023-04-07T03:41:22;4.57;;;1.60;;
74689;SDS011;63221;51.860;-2.188;2023-04-07T03:43:48;3.03;;;1.48;;
74689;SDS011;63221;51.860;-2.188;2023-04-07T03:46:13;5.20;;;1.73;;
74689;SDS011;63221;51.860;-2.188;2023-04-07T03:48:39;5.13;;;1.53;;
74689;SDS011;63221;51.860;-2.188;2023-04-07T03:51:05;5.55;;;0.88;;
74689;SDS011;63221;51.860;-2.188;2023-04-07T03:53:31;3.25;;;1.30;;
74689;SDS011;63221;51.860;-2.188;2023-04-07T03:55:56;2.90;;;1.20;;
74689;SDS011;63221;51.860;-2.188;2023-04-07T03:58:22;4.33;;;1.27;;
74689;SDS011;63221;51.860;-2.188;2023-04-07T04:00:47;4.03;;;1.10;;
74689;SDS011;63221;51.860;-2.188;2023-04-07T04:03:12;3.63;;;0.87;;
74689;SDS011;63221;51.860;-2.188;2023-04-07T04:05:38;4.73;;;1.73;;
74689;SDS011;63221;51.860;-2.188;2023-04-07T04:08:04;2.35;;;0.90;;
74689;SDS011;63221;51.860;-2.188;2023-04-07T04:10:30;3.95;;;1.17;;
74689;SDS011;63221;51.860;-2.188;2023-04-07T04:12:56;4.37;;;2.07;;
74689;SDS011;63221;51.860;-2.188;2023-04-07T04:15:24;2.72;;;1.65;;
74689;SDS011;63221;51.860;-2.188;2023-04-07T04:17:50;4.57;;;1.67;;
74689;SDS011;63221;51.860;-2.188;2023-04-07T04:20:15;4.13;;;1.37;;
74689;SDS011;63221;51.860;-2.188;2023-04-07T04:22:41;5.57;;;1.40;;
74689;SDS011;63221;51.860;-2.188;2023-04-07T04:25:06;4.40;;;1.23;;
74689;SDS011;63221;51.860;-2.188;2023-04-07T04:27:32;2.70;;;1.27;;
74689;SDS011;63221;51.860;-2.188;2023-04-07T04:29:57;2.43;;;1.23;;
74689;SDS011;63221;51.860;-2.188;2023-04-07T04:32:23;4.40;;;0.83;;
74689;SDS011;63221;51.860;-2.188;2023-04-07T04:34:48;2.67;;;1.03;;
74689;SDS011;63221;51.860;-2.188;2023-04-07T04:37:13;2.53;;;1.13;;
74689;SDS011;63221;51.860;-2.188;2023-04-07T04:39:39;4.47;;;1.60;;
74689;SDS011;63221;51.860;-2.188;2023-04-07T04:42:04;1.85;;;0.93;;
74689;SDS011;63221;51.860;-2.188;2023-04-07T04:44:30;4.03;;;1.70;;
74689;SDS011;63221;51.860;-2.188;2023-04-07T04:46:55;2.97;;;1.27;;
74689;SDS011;63221;51.860;-2.188;2023-04-07T04:49:21;4.60;;;1.52;;
74689;SDS011;63221;51.860;-2.188;2023-04-07T04:51:47;4.17;;;1.73;;
74689;SDS011;63221;51.860;-2.188;2023-04-07T04:54:12;3.23;;;1.33;;
74689;SDS011;63221;51.860;-2.188;2023-04-07T04:56:38;3.35;;;1.33;;
74689;SDS011;63221;51.860;-2.188;2023-04-07T04:59:03;3.00;;;1.40;;
74689;SDS011;63221;51.860;-2.188;2023-04-07T05:01:29;2.73;;;1.20;;
74689;SDS011;63221;51.860;-2.188;2023-04-07T05:03:55;6.40;;;1.83;;
74689;SDS011;63221;51.860;-2.188;2023-04-07T05:06:20;5.53;;;1.37;;
74689;SDS011;63221;51.860;-2.188;2023-04-07T05:08:46;4.72;;;1.55;;
74689;SDS011;63221;51.860;-2.188;2023-04-07T05:11:11;2.37;;;1.00;;
74689;SDS011;63221;51.860;-2.188;2023-04-07T05:13:36;4.17;;;1.87;;
74689;SDS011;63221;51.860;-2.188;2023-04-07T05:16:02;3.03;;;0.80;;
74689;SDS011;63221;51.860;-2.188;2023-04-07T05:18:28;5.07;;;2.73;;
74689;SDS011;63221;51.860;-2.188;2023-04-07T05:20:53;2.97;;;1.00;;
74689;SDS011;63221;51.860;-2.188;2023-04-07T05:23:18;5.17;;;1.23;;
74689;SDS011;63221;51.860;-2.188;2023-04-07T05:25:44;3.80;;;1.10;;
74689;SDS011;63221;51.860;-2.188;2023-04-07T05:28:09;5.37;;;1.37;;
74689;SDS011;63221;51.860;-2.188;2023-04-07T05:30:35;2.93;;;1.20;;
74689;SDS011;63221;51.860;-2.188;2023-04-07T05:33:00;3.08;;;1.20;;
74689;SDS011;63221;51.860;-2.188;2023-04-07T05:35:26;6.27;;;1.80;;
74689;SDS011;63221;51.860;-2.188;2023-04-07T05:37:51;5.17;;;1.57;;
74689;SDS011;63221;51.860;-2.188;2023-04-07T05:40:16;2.30;;;1.60;;
74689;SDS011;63221;51.860;-2.188;2023-04-07T05:42:42;3.07;;;1.27;;
74689;SDS011;63221;51.860;-2.188;2023-04-07T05:45:08;3.03;;;1.23;;
74689;SDS011;63221;51.860;-2.188;2023-04-07T05:47:34;3.10;;;1.47;;
74689;SDS011;63221;51.860;-2.188;2023-04-07T05:49:59;3.25;;;1.60;;
74689;SDS011;63221;51.860;-2.188;2023-04-07T05:52:25;5.70;;;2.00;;
74689;SDS011;63221;51.860;-2.188;2023-04-07T05:54:51;2.80;;;1.27;;
74689;SDS011;63221;51.860;-2.188;2023-04-07T05:57:16;4.68;;;1.98;;
74689;SDS011;63221;51.860;-2.188;2023-04-07T05:59:41;5.30;;;2.07;;
74689;SDS011;63221;51.860;-2.188;2023-04-07T06:02:07;3.43;;;1.40;;
74689;SDS011;63221;51.860;-2.188;2023-04-07T06:04:32;4.47;;;1.70;;
74689;SDS011;63221;51.860;-2.188;2023-04-07T06:06:59;6.57;;;1.50;;
74689;SDS011;63221;51.860;-2.188;2023-04-07T06:09:25;7.75;;;2.38;;
74689;SDS011;63221;51.860;-2.188;2023-04-07T06:11:51;4.60;;;1.57;;
74689;SDS011;63221;51.860;-2.188;2023-04-07T06:14:16;3.07;;;1.27;;
74689;SDS011;63221;51.860;-2.188;2023-04-07T06:16:42;3.63;;;1.70;;
74689;SDS011;63221;51.860;-2.188;2023-04-07T06:19:07;4.77;;;1.97;;
74689;SDS011;63221;51.860;-2.188;2023-04-07T06:21:33;3.55;;;1.63;;
74689;SDS011;63221;51.860;-2.188;2023-04-07T06:23:58;5.10;;;1.77;;
74689;SDS011;63221;51.860;-2.188;2023-04-07T06:26:24;5.53;;;1.67;;
74689;SDS011;63221;51.860;-2.188;2023-04-07T06:28:50;3.50;;;1.67;;
74689;SDS011;63221;51.860;-2.188;2023-04-07T06:31:16;6.28;;;2.17;;
74689;SDS011;63221;51.860;-2.188;2023-04-07T06:33:42;4.72;;;1.77;;
74689;SDS011;63221;51.860;-2.188;2023-04-07T06:36:08;3.00;;;1.27;;
74689;SDS011;63221;51.860;-2.188;2023-04-07T06:38:33;3.27;;;1.43;;
74689;SDS011;63221;51.860;-2.188;2023-04-07T06:40:59;3.38;;;1.80;;
74689;SDS011;63221;51.860;-2.188;2023-04-07T06:43:24;4.53;;;2.17;;
74689;SDS011;63221;51.860;-2.188;2023-04-07T06:45:50;7.47;;;1.53;;
74689;SDS011;63221;51.860;-2.188;2023-04-07T06:48:15;4.80;;;1.97;;
74689;SDS011;63221;51.860;-2.188;2023-04-07T06:50:41;4.95;;;1.80;;
74689;SDS011;63221;51.860;-2.188;2023-04-07T06:53:06;3.23;;;1.60;;
74689;SDS011;63221;51.860;-2.188;2023-04-07T06:55:32;3.67;;;1.73;;
74689;SDS011;63221;51.860;-2.188;2023-04-07T06:57:57;9.85;;;1.88;;
74689;SDS011;63221;51.860;-2.188;2023-04-07T07:00:22;3.73;;;1.40;;
74689;SDS011;63221;51.860;-2.188;2023-04-07T07:02:48;3.07;;;1.60;;
74689;SDS011;63221;51.860;-2.188;2023-04-07T07:05:14;5.65;;;1.63;;
74689;SDS011;63221;51.860;-2.188;2023-04-07T07:07:40;3.50;;;1.77;;
74689;SDS011;63221;51.860;-2.188;2023-04-07T07:10:07;3.57;;;1.60;;
74689;SDS011;63221;51.860;-2.188;2023-04-07T07:12:33;2.90;;;0.82;;
74689;SDS011;63221;51.860;-2.188;2023-04-07T07:14:59;5.30;;;1.87;;
74689;SDS011;63221;51.860;-2.188;2023-04-07T07:17:24;3.95;;;1.20;;
74689;SDS011;63221;51.860;-2.188;2023-04-07T07:19:49;6.13;;;1.53;;
74689;SDS011;63221;51.860;-2.188;2023-04-07T07:22:15;2.47;;;1.30;;
74689;SDS011;63221;51.860;-2.188;2023-04-07T07:24:40;4.20;;;1.60;;
74689;SDS011;63221;51.860;-2.188;2023-04-07T07:27:06;4.68;;;1.40;;
74689;SDS011;63221;51.860;-2.188;2023-04-07T07:29:31;4.63;;;1.30;;
74689;SDS011;63221;51.860;-2.188;2023-04-07T07:31:57;4.90;;;1.87;;
74689;SDS011;63221;51.860;-2.188;2023-04-07T07:34:22;6.50;;;1.80;;
74689;SDS011;63221;51.860;-2.188;2023-04-07T07:36:47;5.68;;;1.38;;
74689;SDS011;63221;51.860;-2.188;2023-04-07T07:39:13;3.03;;;1.33;;
74689;SDS011;63221;51.860;-2.188;2023-04-07T07:41:38;3.43;;;1.43;;
74689;SDS011;63221;51.860;-2.188;2023-04-07T07:44:04;3.72;;;1.58;;
74689;SDS011;63221;51.860;-2.188;2023-04-07T07:46:29;3.50;;;0.90;;
74689;SDS011;63221;51.860;-2.188;2023-04-07T07:48:55;2.80;;;1.10;;
74689;SDS011;63221;51.860;-2.188;2023-04-07T07:51:20;3.73;;;1.10;;
74689;SDS011;63221;51.860;-2.188;2023-04-07T07:53:46;2.63;;;1.40;;
74689;SDS011;63221;51.860;-2.188;2023-04-07T07:56:11;6.13;;;1.30;;
74689;SDS011;63221;51.860;-2.188;2023-04-07T07:58:37;3.73;;;1.47;;
74689;SDS011;63221;51.860;-2.188;2023-04-07T08:01:02;4.10;;;1.20;;
74689;SDS011;63221;51.860;-2.188;2023-04-07T08:03:28;2.43;;;1.40;;
74689;SDS011;63221;51.860;-2.188;2023-04-07T08:05:53;3.13;;;1.37;;
74689;SDS011;63221;51.860;-2.188;2023-04-07T08:08:18;4.40;;;1.10;;
74689;SDS011;63221;51.860;-2.188;2023-04-07T08:10:44;3.17;;;1.63;;
74689;SDS011;63221;51.860;-2.188;2023-04-07T08:13:10;2.85;;;0.98;;
74689;SDS011;63221;51.860;-2.188;2023-04-07T08:15:35;3.37;;;0.77;;
74689;SDS011;63221;51.860;-2.188;2023-04-07T08:18:01;1.73;;;0.73;;
74689;SDS011;63221;51.860;-2.188;2023-04-07T08:20:28;3.35;;;1.40;;
74689;SDS011;63221;51.860;-2.188;2023-04-07T08:22:54;2.80;;;0.95;;
74689;SDS011;63221;51.860;-2.188;2023-04-07T08:25:20;3.13;;;0.90;;
74689;SDS011;63221;51.860;-2.188;2023-04-07T08:27:45;3.17;;;1.27;;
74689;SDS011;63221;51.860;-2.188;2023-04-07T08:30:11;4.07;;;1.13;;
74689;SDS011;63221;51.860;-2.188;2023-04-07T08:32:37;6.03;;;0.70;;
74689;SDS011;63221;51.860;-2.188;2023-04-07T08:35:05;12.15;;;2.85;;
74689;SDS011;63221;51.860;-2.188;2023-04-07T08:37:31;2.90;;;1.10;;
74689;SDS011;63221;51.860;-2.188;2023-04-07T08:39:57;6.38;;;1.05;;
74689;SDS011;63221;51.860;-2.188;2023-04-07T08:42:23;2.73;;;1.73;;
74689;SDS011;63221;51.860;-2.188;2023-04-07T08:44:55;4.65;;;0.75;;
74689;SDS011;63221;51.860;-2.188;2023-04-07T08:47:31;4.67;;;0.97;;
74689;SDS011;63221;51.860;-2.188;2023-04-07T08:50:01;4.47;;;1.25;;
74689;SDS011;63221;51.860;-2.188;2023-04-07T08:55:28;3.92;;;1.13;;
74689;SDS011;63221;51.860;-2.188;2023-04-07T08:57:54;4.40;;;1.20;;
74689;SDS011;63221;51.860;-2.188;2023-04-07T09:00:20;4.80;;;1.02;;
74689;SDS011;63221;51.860;-2.188;2023-04-07T09:02:45;3.07;;;0.97;;
74689;SDS011;63221;51.860;-2.188;2023-04-07T09:05:12;3.28;;;1.02;;
74689;SDS011;63221;51.860;-2.188;2023-04-07T09:07:41;4.72;;;1.10;;
74689;SDS011;63221;51.860;-2.188;2023-04-07T09:10:10;7.87;;;1.47;;
74689;SDS011;63221;51.860;-2.188;2023-04-07T09:12:36;3.63;;;0.70;;
74689;SDS011;63221;51.860;-2.188;2023-04-07T09:15:01;2.23;;;0.83;;
74689;SDS011;63221;51.860;-2.188;2023-04-07T09:17:27;4.10;;;0.40;;
74689;SDS011;63221;51.860;-2.188;2023-04-07T09:19:57;2.33;;;0.85;;
74689;SDS011;63221;51.860;-2.188;2023-04-07T09:22:39;2.90;;;0.98;;
74689;SDS011;63221;51.860;-2.188;2023-04-07T09:25:12;5.10;;;0.70;;
74689;SDS011;63221;51.860;-2.188;2023-04-07T09:27:57;3.00;;;0.68;;
74689;SDS011;63221;51.860;-2.188;2023-04-07T09:30:23;2.70;;;0.80;;
74689;SDS011;63221;51.860;-2.188;2023-04-07T09:32:48;2.85;;;0.65;;
74689;SDS011;63221;51.860;-2.188;2023-04-07T09:35:14;2.23;;;1.10;;
74689;SDS011;63221;51.860;-2.188;2023-04-07T09:37:39;2.80;;;0.60;;
74689;SDS011;63221;51.860;-2.188;2023-04-07T09:40:06;3.90;;;0.70;;
74689;SDS011;63221;51.860;-2.188;2023-04-07T09:42:32;3.97;;;1.05;;
74689;SDS011;63221;51.860;-2.188;2023-04-07T09:45:00;2.08;;;0.52;;
74689;SDS011;63221;51.860;-2.188;2023-04-07T09:47:27;2.07;;;0.67;;
74689;SDS011;63221;51.860;-2.188;2023-04-07T09:49:53;3.25;;;0.30;;
74689;SDS011;63221;51.860;-2.188;2023-04-07T09:52:47;3.22;;;0.93;;
74689;SDS011;63221;51.860;-2.188;2023-04-07T09:55:20;4.10;;;0.68;;
74689;SDS011;63221;51.860;-2.188;2023-04-07T09:57:47;2.23;;;0.83;;
74689;SDS011;63221;51.860;-2.188;2023-04-07T10:00:16;5.05;;;0.85;;
74689;SDS011;63221;51.860;-2.188;2023-04-07T10:02:42;2.63;;;0.97;;
74689;SDS011;63221;51.860;-2.188;2023-04-07T10:05:08;1.85;;;0.70;;
74689;SDS011;63221;51.860;-2.188;2023-04-07T10:07:34;4.25;;;0.70;;
74689;SDS011;63221;51.860;-2.188;2023-04-07T10:10:00;4.47;;;0.73;;
74689;SDS011;63221;51.860;-2.188;2023-04-07T10:12:25;1.57;;;0.60;;
74689;SDS011;63221;51.860;-2.188;2023-04-07T10:14:51;3.83;;;0.47;;
74689;SDS011;63221;51.860;-2.188;2023-04-07T10:17:17;4.03;;;0.50;;
74689;SDS011;63221;51.860;-2.188;2023-04-07T10:19:44;4.07;;;0.90;;
74689;SDS011;63221;51.860;-2.188;2023-04-07T10:22:11;4.32;;;0.88;;
74689;SDS011;63221;51.860;-2.188;2023-04-07T10:27:34;3.25;;;0.70;;
74689;SDS011;63221;51.860;-2.188;2023-04-07T10:30:02;2.55;;;0.63;;
74689;SDS011;63221;51.860;-2.188;2023-04-07T10:32:29;2.80;;;1.00;;
74689;SDS011;63221;51.860;-2.188;2023-04-07T10:34:55;5.03;;;0.40;;
74689;SDS011;63221;51.860;-2.188;2023-04-07T10:37:22;4.53;;;0.95;;
74689;SDS011;63221;51.860;-2.188;2023-04-07T10:39:49;1.92;;;0.40;;
74689;SDS011;63221;51.860;-2.188;2023-04-07T10:45:00;1.60;;;0.93;;
74689;SDS011;63221;51.860;-2.188;2023-04-07T10:47:26;3.67;;;1.05;;
74689;SDS011;63221;51.860;-2.188;2023-04-07T10:52:40;3.13;;;0.45;;
74689;SDS011;63221;51.860;-2.188;2023-04-07T11:03:31;3.05;;;0.40;;
74689;SDS011;63221;51.860;-2.188;2023-04-07T11:06:08;1.02;;;0.45;;
74689;SDS011;63221;51.860;-2.188;2023-04-07T11:08:44;4.80;;;0.65;;
74689;SDS011;63221;51.860;-2.188;2023-04-07T11:11:12;5.10;;;0.83;;
74689;SDS011;63221;51.860;-2.188;2023-04-07T11:13:45;8.95;;;0.90;;
74689;SDS011;63221;51.860;-2.188;2023-04-07T11:16:12;2.40;;;1.08;;
74689;SDS011;63221;51.860;-2.188;2023-04-07T11:18:39;2.00;;;0.30;;
74689;SDS011;63221;51.860;-2.188;2023-04-07T11:21:05;2.67;;;0.63;;
74689;SDS011;63221;51.860;-2.188;2023-04-07T11:26:08;2.30;;;0.40;;
74689;SDS011;63221;51.860;-2.188;2023-04-07T11:28:35;2.25;;;0.40;;
74689;SDS011;63221;51.860;-2.188;2023-04-07T11:31:10;2.85;;;0.80;;
74689;SDS011;63221;51.860;-2.188;2023-04-07T11:33:35;3.23;;;0.60;;
74689;SDS011;63221;51.860;-2.188;2023-04-07T11:36:03;1.45;;;0.40;;
74689;SDS011;63221;51.860;-2.188;2023-04-07T11:38:29;2.93;;;0.60;;
74689;SDS011;63221;51.860;-2.188;2023-04-07T11:41:08;3.33;;;0.60;;
74689;SDS011;63221;51.860;-2.188;2023-04-07T11:43:35;2.53;;;0.40;;
74689;SDS011;63221;51.860;-2.188;2023-04-07T11:46:05;1.85;;;1.00;;
74689;SDS011;63221;51.860;-2.188;2023-04-07T11:48:41;1.13;;;0.60;;
74689;SDS011;63221;51.860;-2.188;2023-04-07T11:51:18;0.93;;;0.43;;
74689;SDS011;63221;51.860;-2.188;2023-04-07T11:53:44;1.95;;;0.55;;
74689;SDS011;63221;51.860;-2.188;2023-04-07T11:56:14;2.33;;;1.15;;
74689;SDS011;63221;51.860;-2.188;2023-04-07T11:58:49;2.30;;;0.73;;
74689;SDS011;63221;51.860;-2.188;2023-04-07T12:01:16;1.95;;;0.70;;
74689;SDS011;63221;51.860;-2.188;2023-04-07T12:04:01;1.63;;;0.87;;
74689;SDS011;63221;51.860;-2.188;2023-04-07T12:09:03;1.73;;;0.63;;
74689;SDS011;63221;51.860;-2.188;2023-04-07T12:11:29;2.47;;;0.30;;
74689;SDS011;63221;51.860;-2.188;2023-04-07T12:13:55;2.83;;;0.50;;
74689;SDS011;63221;51.860;-2.188;2023-04-07T12:16:22;2.13;;;0.70;;
74689;SDS011;63221;51.860;-2.188;2023-04-07T12:18:48;2.95;;;0.77;;
74689;SDS011;63221;51.860;-2.188;2023-04-07T12:21:15;4.97;;;0.63;;
74689;SDS011;63221;51.860;-2.188;2023-04-07T12:23:41;1.80;;;0.50;;
74689;SDS011;63221;51.860;-2.188;2023-04-07T12:26:06;0.90;;;0.30;;
74689;SDS011;63221;51.860;-2.188;2023-04-07T12:28:32;2.37;;;0.60;;
74689;SDS011;63221;51.860;-2.188;2023-04-07T12:30:58;2.08;;;0.30;;
74689;SDS011;63221;51.860;-2.188;2023-04-07T12:33:23;1.53;;;0.40;;
74689;SDS011;63221;51.860;-2.188;2023-04-07T12:35:49;1.43;;;0.50;;
74689;SDS011;63221;51.860;-2.188;2023-04-07T12:38:14;1.33;;;0.40;;
74689;SDS011;63221;51.860;-2.188;2023-04-07T12:40:40;2.00;;;0.50;;
74689;SDS011;63221;51.860;-2.188;2023-04-07T12:43:06;1.02;;;0.70;;
74689;SDS011;63221;51.860;-2.188;2023-04-07T12:45:31;1.33;;;0.20;;
74689;SDS011;63221;51.860;-2.188;2023-04-07T12:47:57;1.90;;;0.45;;
74689;SDS011;63221;51.860;-2.188;2023-04-07T12:50:23;0.80;;;0.40;;
74689;SDS011;63221;51.860;-2.188;2023-04-07T12:52:51;0.77;;;0.30;;
74689;SDS011;63221;51.860;-2.188;2023-04-07T12:55:17;2.45;;;0.50;;
74689;SDS011;63221;51.860;-2.188;2023-04-07T12:57:43;0.97;;;0.33;;
74689;SDS011;63221;51.860;-2.188;2023-04-07T13:00:08;1.90;;;0.20;;
74689;SDS011;63221;51.860;-2.188;2023-04-07T13:02:34;1.80;;;0.35;;
74689;SDS011;63221;51.860;-2.188;2023-04-07T13:05:03;0.85;;;0.70;;
74689;SDS011;63221;51.860;-2.188;2023-04-07T13:07:28;1.57;;;0.30;;
74689;SDS011;63221;51.860;-2.188;2023-04-07T13:09:54;2.42;;;0.40;;
74689;SDS011;63221;51.860;-2.188;2023-04-07T13:12:21;1.03;;;0.20;;
74689;SDS011;63221;51.860;-2.188;2023-04-07T13:14:46;1.08;;;0.30;;
74689;SDS011;63221;51.860;-2.188;2023-04-07T13:17:12;2.20;;;0.57;;
74689;SDS011;63221;51.860;-2.188;2023-04-07T13:19:37;1.17;;;0.20;;
74689;SDS011;63221;51.860;-2.188;2023-04-07T13:22:04;1.42;;;0.20;;
74689;SDS011;63221;51.860;-2.188;2023-04-07T13:24:29;1.90;;;0.37;;
74689;SDS011;63221;51.860;-2.188;2023-04-07T13:26:55;0.80;;;0.40;;
74689;SDS011;63221;51.860;-2.188;2023-04-07T13:29:21;1.27;;;0.77;;
74689;SDS011;63221;51.860;-2.188;2023-04-07T13:31:47;0.90;;;0.53;;
74689;SDS011;63221;51.860;-2.188;2023-04-07T13:34:12;0.80;;;0.60;;
74689;SDS011;63221;51.860;-2.188;2023-04-07T13:36:38;1.83;;;0.63;;
74689;SDS011;63221;51.860;-2.188;2023-04-07T13:39:05;1.48;;;0.20;;
74689;SDS011;63221;51.860;-2.188;2023-04-07T13:41:31;2.45;;;0.80;;
74689;SDS011;63221;51.860;-2.188;2023-04-07T13:43:56;1.43;;;0.40;;
74689;SDS011;63221;51.860;-2.188;2023-04-07T13:46:25;1.33;;;0.40;;
74689;SDS011;63221;51.860;-2.188;2023-04-07T13:48:52;1.85;;;0.68;;
74689;SDS011;63221;51.860;-2.188;2023-04-07T13:51:17;0.77;;;0.60;;
74689;SDS011;63221;51.860;-2.188;2023-04-07T13:53:43;1.03;;;0.63;;
74689;SDS011;63221;51.860;-2.188;2023-04-07T13:56:09;0.68;;;0.30;;
74689;SDS011;63221;51.860;-2.188;2023-04-07T13:58:34;2.37;;;0.70;;
74689;SDS011;63221;51.860;-2.188;2023-04-07T14:01:01;0.70;;;0.10;;
74689;SDS011;63221;51.860;-2.188;2023-04-07T14:03:27;1.17;;;0.60;;
74689;SDS011;63221;51.860;-2.188;2023-04-07T14:05:52;0.60;;;0.17;;
74689;SDS011;63221;51.860;-2.188;2023-04-07T14:08:19;1.30;;;0.40;;
74689;SDS011;63221;51.860;-2.188;2023-04-07T14:10:47;1.13;;;0.40;;
74689;SDS011;63221;51.860;-2.188;2023-04-07T14:13:13;1.95;;;0.85;;
74689;SDS011;63221;51.860;-2.188;2023-04-07T14:15:38;0.80;;;0.47;;
74689;SDS011;63221;51.860;-2.188;2023-04-07T14:18:03;4.47;;;0.80;;
74689;SDS011;63221;51.860;-2.188;2023-04-07T14:20:30;1.52;;;0.43;;
74689;SDS011;63221;51.860;-2.188;2023-04-07T14:22:55;2.53;;;0.40;;
74689;SDS011;63221;51.860;-2.188;2023-04-07T14:25:21;0.70;;;0.30;;
74689;SDS011;63221;51.860;-2.188;2023-04-07T14:27:46;1.92;;;0.65;;
74689;SDS011;63221;51.860;-2.188;2023-04-07T14:30:11;1.73;;;0.60;;
74689;SDS011;63221;51.860;-2.188;2023-04-07T14:32:37;0.93;;;0.30;;
74689;SDS011;63221;51.860;-2.188;2023-04-07T14:35:02;1.53;;;0.37;;
74689;SDS011;63221;51.860;-2.188;2023-04-07T14:37:28;0.50;;;0.30;;
74689;SDS011;63221;51.860;-2.188;2023-04-07T14:39:53;1.40;;;0.57;;
74689;SDS011;63221;51.860;-2.188;2023-04-07T14:42:19;2.73;;;0.30;;
74689;SDS011;63221;51.860;-2.188;2023-04-07T14:44:45;1.95;;;0.47;;
74689;SDS011;63221;51.860;-2.188;2023-04-07T14:47:11;1.70;;;0.30;;
74689;SDS011;63221;51.860;-2.188;2023-04-07T14:49:37;1.27;;;0.20;;
74689;SDS011;63221;51.860;-2.188;2023-04-07T14:52:02;0.90;;;0.30;;
74689;SDS011;63221;51.860;-2.188;2023-04-07T14:54:28;1.27;;;0.60;;
74689;SDS011;63221;51.860;-2.188;2023-04-07T14:56:54;1.23;;;0.30;;
74689;SDS011;63221;51.860;-2.188;2023-04-07T14:59:20;1.27;;;0.33;;
74689;SDS011;63221;51.860;-2.188;2023-04-07T15:01:45;1.57;;;0.40;;